createdAt,value
2019-03-06T00:00:54.539Z,97855.28
2019-03-06T00:03:30.582Z,97853.16
2019-03-06T00:06:03.214Z,97853.73
2019-03-06T00:08:36.781Z,97844.36
2019-03-06T00:11:09.839Z,97842.23
2019-03-06T00:13:41.424Z,97837.33
2019-03-06T00:16:15.078Z,97826.59
2019-03-06T00:18:46.651Z,97834.56
2019-03-06T00:21:18.203Z,97827.53
2019-03-06T00:23:49.776Z,97830.84
2019-03-06T00:26:21.369Z,97824.27
2019-03-06T00:28:52.906Z,97821.32
2019-03-06T00:31:24.529Z,97828.25
2019-03-06T00:33:56.342Z,97825.02
2019-03-06T00:36:29.283Z,97828.00
2019-03-06T00:39:00.852Z,97828.09
2019-03-06T00:41:50.803Z,97822.99
2019-03-06T00:44:22.382Z,97823.53
2019-03-06T00:46:53.985Z,97828.55
2019-03-06T00:49:25.531Z,97823.17
2019-03-06T00:51:57.370Z,97826.14
2019-03-06T00:54:28.922Z,97823.45
2019-03-06T00:57:00.502Z,97823.46
2019-03-06T00:59:32.055Z,97808.70
2019-03-06T01:02:04.578Z,97816.67
2019-03-06T01:04:36.146Z,97813.33
2019-03-06T01:07:07.703Z,97812.96
2019-03-06T01:09:39.287Z,97817.32
2019-03-06T01:12:12.648Z,97807.69
2019-03-06T01:14:44.226Z,97813.34
2019-03-06T01:17:18.153Z,97803.88
2019-03-06T01:19:50.069Z,97805.56
2019-03-06T01:22:25.136Z,97795.63
2019-03-06T01:24:56.788Z,97801.30
2019-03-06T01:27:31.110Z,97795.81
2019-03-06T01:30:02.686Z,97795.91
2019-03-06T01:32:34.696Z,97793.41
2019-03-06T01:35:25.105Z,97787.96
2019-03-06T01:38:14.287Z,97777.94
2019-03-06T01:41:09.404Z,97771.11
2019-03-06T01:43:45.971Z,97768.87
2019-03-06T01:46:17.667Z,97769.88
2019-03-06T01:48:50.202Z,97773.95
2019-03-06T01:51:21.779Z,97773.60
2019-03-06T01:53:53.322Z,97765.16
2019-03-06T01:56:24.951Z,97763.09
2019-03-06T01:58:56.518Z,97756.36
2019-03-06T02:01:28.079Z,97758.45
2019-03-06T02:04:00.699Z,97753.01
2019-03-06T02:06:32.273Z,97756.42
2019-03-06T02:09:04.093Z,97752.63
2019-03-06T02:11:35.842Z,97750.33
2019-03-06T02:14:07.405Z,97740.67
2019-03-06T02:16:40.059Z,97737.82
2019-03-06T02:19:11.621Z,97738.17
2019-03-06T02:21:45.732Z,97735.41
2019-03-06T02:24:17.290Z,97734.67
2019-03-06T02:26:48.871Z,97733.09
2019-03-06T02:29:20.433Z,97729.37
2019-03-06T02:31:51.977Z,97726.41
2019-03-06T02:34:24.632Z,97717.43
2019-03-06T02:36:56.187Z,97708.63
2019-03-06T02:39:27.747Z,97700.69
2019-03-06T02:41:59.291Z,97701.69
2019-03-06T02:44:31.936Z,97696.78
2019-03-06T02:47:03.779Z,97691.30
2019-03-06T02:49:35.359Z,97695.84
2019-03-06T02:52:08.521Z,97690.02
2019-03-06T02:54:45.779Z,97691.75
2019-03-06T02:57:20.480Z,97691.02
2019-03-06T03:00:11.301Z,97689.16
2019-03-06T03:02:52.305Z,97684.72
2019-03-06T03:05:32.806Z,97682.22
2019-03-06T03:08:04.379Z,97673.03
2019-03-06T03:10:35.939Z,97678.56
2019-03-06T03:13:09.292Z,97671.53
2019-03-06T03:15:40.873Z,97671.70
2019-03-06T03:18:12.411Z,97672.05
2019-03-06T03:20:44.023Z,97664.45
2019-03-06T03:23:15.853Z,97669.64
2019-03-06T03:25:47.431Z,97666.31
2019-03-06T03:28:19.923Z,97661.02
2019-03-06T03:30:51.523Z,97654.25
2019-03-06T03:33:23.102Z,97647.61
2019-03-06T03:35:54.703Z,97646.05
2019-03-06T03:38:26.258Z,97644.89
2019-03-06T03:40:58.103Z,97643.69
2019-03-06T03:43:29.659Z,97639.13
2019-03-06T03:46:01.220Z,97636.88
2019-03-06T03:48:33.045Z,97637.91
2019-03-06T03:51:04.618Z,97636.61
2019-03-06T03:53:36.472Z,97639.38
2019-03-06T03:56:08.561Z,97648.20
2019-03-06T03:58:40.099Z,97636.56
2019-03-06T04:01:11.684Z,97635.83
2019-03-06T04:03:43.552Z,97639.33
2019-03-06T04:06:15.110Z,97640.62
2019-03-06T04:08:46.678Z,97640.15
2019-03-06T04:11:19.599Z,97649.67
2019-03-06T04:13:51.199Z,97647.63
2019-03-06T04:16:25.092Z,97640.78
2019-03-06T04:18:56.664Z,97657.42
2019-03-06T04:21:28.430Z,97656.77
2019-03-06T04:24:00.266Z,97658.70
2019-03-06T04:26:31.803Z,97663.66
2019-03-06T04:29:03.561Z,97661.78
2019-03-06T04:31:35.101Z,97666.43
2019-03-06T04:34:06.655Z,97666.98
2019-03-06T04:36:38.198Z,97672.98
2019-03-06T04:39:10.332Z,97666.10
2019-03-06T04:41:42.160Z,97654.80
2019-03-06T04:44:14.196Z,97653.41
2019-03-06T04:46:47.482Z,97657.36
2019-03-06T04:49:19.316Z,97652.05
2019-03-06T04:51:51.133Z,97648.81
2019-03-06T04:54:27.691Z,97638.88
2019-03-06T04:56:57.859Z,97644.13
2019-03-06T04:59:29.906Z,97652.63
2019-03-06T05:02:01.747Z,97649.65
2019-03-06T05:04:33.300Z,97649.65
2019-03-06T05:07:04.860Z,97639.48
2019-03-06T05:09:37.997Z,97646.48
2019-03-06T05:12:09.831Z,97645.44
2019-03-06T05:14:41.427Z,97642.22
2019-03-06T05:17:33.299Z,97627.28
2019-03-06T05:20:05.205Z,97624.14
2019-03-06T05:22:37.044Z,97613.38
2019-03-06T05:25:09.088Z,97612.09
2019-03-06T05:27:40.928Z,97609.59
2019-03-06T05:30:13.187Z,97599.42
2019-03-06T05:32:45.824Z,97588.16
2019-03-06T05:36:01.611Z,97592.03
2019-03-06T05:38:43.677Z,97583.07
2019-03-06T05:41:15.225Z,97571.78
2019-03-06T05:43:47.133Z,97571.42
2019-03-06T05:46:18.687Z,97569.39
2019-03-06T05:48:50.500Z,97571.50
2019-03-06T05:51:22.079Z,97566.34
2019-03-06T05:53:53.878Z,97577.38
2019-03-06T05:56:25.441Z,97584.36
2019-03-06T05:58:57.041Z,97579.97
2019-03-06T06:01:28.598Z,97580.23
2019-03-06T06:04:00.159Z,97579.50
2019-03-06T06:06:31.724Z,97573.43
2019-03-06T06:09:04.633Z,97567.80
2019-03-06T06:11:37.535Z,97574.09
2019-03-06T06:14:13.308Z,97572.98
2019-03-06T06:16:45.136Z,97574.25
2019-03-06T06:19:16.990Z,97578.95
2019-03-06T06:22:10.486Z,97566.81
2019-03-06T06:24:43.137Z,97558.02
2019-03-06T06:27:15.075Z,97561.67
2019-03-06T06:29:47.177Z,97557.63
2019-03-06T06:32:19.031Z,97546.02
2019-03-06T06:34:52.436Z,97547.69
2019-03-06T06:37:24.272Z,97548.76
2019-03-06T06:39:56.295Z,97541.14
2019-03-06T06:42:27.875Z,97538.66
2019-03-06T06:44:59.449Z,97532.72
2019-03-06T06:47:31.360Z,97522.92
2019-03-06T06:50:02.929Z,97522.65
2019-03-06T06:53:48.952Z,97534.73
2019-03-06T06:57:31.585Z,97530.86
2019-03-06T07:00:54.816Z,97513.05
2019-03-06T07:04:38.879Z,97513.05
2019-03-06T07:07:28.055Z,97510.36
2019-03-06T07:10:17.620Z,97506.80
2019-03-06T07:13:16.912Z,97507.23
2019-03-06T07:16:06.497Z,97514.48
2019-03-06T07:19:02.839Z,97510.05
2019-03-06T07:22:00.029Z,97514.20
2019-03-06T07:24:53.327Z,97507.02
2019-03-06T07:27:44.845Z,97506.55
2019-03-06T07:30:40.178Z,97504.75
2019-03-06T07:33:36.537Z,97496.48
2019-03-06T07:36:30.058Z,97492.27
2019-03-06T07:39:32.541Z,97491.42
2019-03-06T07:42:35.037Z,97483.50
2019-03-06T07:46:10.881Z,97490.30
2019-03-06T07:49:00.574Z,97489.98
2019-03-06T07:51:57.453Z,97487.66
2019-03-06T07:54:50.722Z,97495.48
2019-03-06T07:57:27.447Z,97486.56
2019-03-06T07:59:59.004Z,97471.01
2019-03-06T08:02:53.509Z,97472.36
2019-03-06T08:05:25.227Z,97462.81
2019-03-06T08:07:56.796Z,97458.34
2019-03-06T08:10:31.619Z,97456.13
2019-03-06T08:13:11.311Z,97456.13
2019-03-06T08:15:54.157Z,97466.05
2019-03-06T08:18:50.685Z,97461.40
2019-03-06T08:21:47.186Z,97466.34
2019-03-06T08:24:43.580Z,97460.58
2019-03-06T08:27:15.182Z,97451.72
2019-03-06T08:29:46.796Z,97455.02
2019-03-06T08:32:28.099Z,97455.02
2019-03-06T08:34:59.675Z,97459.30
2019-03-06T08:37:34.337Z,97464.64
2019-03-06T08:40:06.721Z,97471.46
2019-03-06T08:42:38.376Z,97465.58
2019-03-06T08:45:13.417Z,97470.02
2019-03-06T08:48:00.930Z,97458.45
2019-03-06T08:50:52.138Z,97450.39
2019-03-06T08:53:31.844Z,97449.36
2019-03-06T08:56:13.991Z,97454.11
2019-03-06T08:58:58.004Z,97448.66
2019-03-06T09:02:05.394Z,97448.59
2019-03-06T09:05:06.395Z,97435.78
2019-03-06T09:07:56.019Z,97441.81
2019-03-06T09:10:45.506Z,97437.70
2019-03-06T09:13:35.962Z,97430.28
2019-03-06T09:16:25.280Z,97425.39
2019-03-06T09:19:14.657Z,97420.71
2019-03-06T09:22:05.102Z,97427.34
2019-03-06T09:24:53.267Z,97422.07
2019-03-06T09:27:37.830Z,97412.27
2019-03-06T09:30:34.774Z,97407.93
2019-03-06T09:33:11.603Z,97404.30
2019-03-06T09:35:51.981Z,97394.22
2019-03-06T09:38:51.516Z,97392.52
2019-03-06T09:41:48.159Z,97392.14
2019-03-06T09:44:40.254Z,97390.92
2019-03-06T09:47:31.543Z,97382.55
2019-03-06T09:50:37.403Z,97383.05
2019-03-06T09:53:33.595Z,97366.22
2019-03-06T09:56:29.724Z,97364.73
2019-03-06T09:59:35.623Z,97351.46
2019-03-06T10:02:15.298Z,97344.24
2019-03-06T10:04:58.947Z,97340.98
2019-03-06T10:08:04.543Z,97328.55
2019-03-06T10:10:50.414Z,97323.94
2019-03-06T10:13:41.606Z,97314.53
2019-03-06T10:16:34.508Z,97306.59
2019-03-06T10:19:13.885Z,97300.12
2019-03-06T10:21:45.462Z,97297.73
2019-03-06T10:24:17.068Z,97309.05
2019-03-06T10:26:49.880Z,97297.27
2019-03-06T10:29:21.427Z,97295.30
2019-03-06T10:31:54.073Z,97281.38
2019-03-06T10:34:25.953Z,97285.69
2019-03-06T10:36:57.526Z,97276.48
2019-03-06T10:39:29.118Z,97273.27
2019-03-06T10:42:00.692Z,97271.81
2019-03-06T10:44:32.308Z,97269.20
2019-03-06T10:47:03.887Z,97269.83
2019-03-06T10:49:35.548Z,97269.66
2019-03-06T10:52:07.336Z,97257.89
2019-03-06T10:54:44.703Z,97254.07
2019-03-06T10:57:13.762Z,97252.82
2019-03-06T10:59:45.610Z,97257.56
2019-03-06T11:02:18.986Z,97247.14
2019-03-06T11:05:09.797Z,97248.36
2019-03-06T11:07:41.448Z,97233.95
2019-03-06T11:10:23.299Z,97231.75
2019-03-06T11:12:46.937Z,97225.30
2019-03-06T11:15:21.014Z,97226.23
2019-03-06T11:17:53.035Z,97211.30
2019-03-06T11:20:29.811Z,97210.34
2019-03-06T11:23:02.844Z,97206.12
2019-03-06T11:25:36.756Z,97205.66
2019-03-06T11:28:10.917Z,97200.87
2019-03-06T11:30:53.116Z,97201.36
2019-03-06T11:33:25.801Z,97196.62
2019-03-06T11:35:58.400Z,97190.52
2019-03-06T11:38:30.447Z,97187.98
2019-03-06T11:41:02.531Z,97177.14
2019-03-06T11:43:34.578Z,97184.65
2019-03-06T11:46:07.927Z,97175.98
2019-03-06T11:48:39.497Z,97172.23
2019-03-06T11:51:12.789Z,97169.81
2019-03-06T11:53:44.399Z,97161.64
2019-03-06T11:56:15.969Z,97156.55
2019-03-06T11:58:48.257Z,97149.48
2019-03-06T12:01:23.699Z,97143.12
2019-03-06T12:03:56.642Z,97131.16
2019-03-06T12:06:28.235Z,97132.63
2019-03-06T12:08:59.776Z,97129.08
2019-03-06T12:11:31.729Z,97124.38
2019-03-06T12:14:03.304Z,97122.27
2019-03-06T12:16:41.677Z,97128.52
2019-03-06T12:19:08.134Z,97125.97
2019-03-06T12:21:39.715Z,97113.30
2019-03-06T12:24:13.110Z,97107.32
2019-03-06T12:26:44.771Z,97099.69
2019-03-06T12:29:18.048Z,97085.77
2019-03-06T12:31:49.671Z,97080.19
2019-03-06T12:34:21.247Z,97083.99
2019-03-06T12:36:53.178Z,97072.80
2019-03-06T12:39:24.949Z,97060.98
2019-03-06T12:41:56.509Z,97063.46
2019-03-06T12:44:28.052Z,97049.18
2019-03-06T12:47:01.707Z,97047.03
2019-03-06T12:49:33.299Z,97035.85
2019-03-06T12:52:05.115Z,97036.03
2019-03-06T12:54:36.868Z,97035.87
2019-03-06T12:57:08.435Z,97020.89
2019-03-06T12:59:41.297Z,97018.61
2019-03-06T13:02:12.892Z,97011.20
2019-03-06T13:04:44.489Z,97009.21
2019-03-06T13:07:18.090Z,97019.76
2019-03-06T13:09:49.484Z,97005.44
2019-03-06T13:12:21.052Z,96999.86
2019-03-06T13:14:52.664Z,96992.45
2019-03-06T13:17:24.756Z,96988.98
2019-03-06T13:19:56.336Z,96975.17
2019-03-06T13:22:28.346Z,96972.52
2019-03-06T13:24:59.941Z,96973.50
2019-03-06T13:27:31.887Z,96967.39
2019-03-06T13:30:03.536Z,96957.34
2019-03-06T13:33:00.249Z,96963.75
2019-03-06T13:35:33.859Z,96962.44
2019-03-06T13:38:05.553Z,96958.95
2019-03-06T13:40:37.116Z,96949.06
2019-03-06T13:43:08.928Z,96951.52
2019-03-06T13:45:40.716Z,96945.23
2019-03-06T13:48:15.295Z,96945.23
2019-03-06T13:50:46.903Z,96941.27
2019-03-06T13:53:20.741Z,96933.88
2019-03-06T13:55:52.466Z,96932.41
2019-03-06T13:58:24.026Z,96931.25
2019-03-06T14:00:55.589Z,96929.27
2019-03-06T14:03:27.177Z,96924.50
2019-03-06T14:05:59.088Z,96919.41
2019-03-06T14:08:30.676Z,96918.59
2019-03-06T14:11:02.260Z,96919.15
2019-03-06T14:13:38.231Z,96914.39
2019-03-06T14:16:09.889Z,96908.96
2019-03-06T14:18:41.630Z,96906.03
2019-03-06T14:21:13.320Z,96900.13
2019-03-06T14:23:44.876Z,96896.98
2019-03-06T14:26:18.548Z,96895.88
2019-03-06T14:28:49.955Z,96887.17
2019-03-06T14:31:23.620Z,96895.71
2019-03-06T14:33:58.188Z,96893.92
2019-03-06T14:36:30.452Z,96887.52
2019-03-06T14:39:18.389Z,96895.58
2019-03-06T14:41:49.968Z,96888.36
2019-03-06T14:44:24.222Z,96887.04
2019-03-06T14:46:55.988Z,96894.77
2019-03-06T14:49:30.455Z,96879.81
2019-03-06T14:52:07.334Z,96881.81
2019-03-06T14:54:35.680Z,96883.43
2019-03-06T14:57:07.389Z,96879.81
2019-03-06T14:59:38.970Z,96877.69
2019-03-06T15:02:10.872Z,96875.87
2019-03-06T15:04:42.478Z,96876.52
2019-03-06T15:07:15.768Z,96863.86
2019-03-06T15:09:49.863Z,96866.19
2019-03-06T15:12:21.470Z,96854.85
2019-03-06T15:14:53.054Z,96854.34
2019-03-06T15:17:24.757Z,96847.63
2019-03-06T15:19:56.318Z,96847.49
2019-03-06T15:22:27.910Z,96851.77
2019-03-06T15:24:59.480Z,96847.82
2019-03-06T15:27:33.234Z,96841.08
2019-03-06T15:30:11.117Z,96835.98
2019-03-06T15:32:42.714Z,96833.55
2019-03-06T15:35:15.006Z,96835.84
2019-03-06T15:37:46.894Z,96833.55
2019-03-06T15:40:23.747Z,96831.08
2019-03-06T15:42:55.323Z,96834.05
2019-03-06T15:45:32.872Z,96830.77
2019-03-06T15:48:05.801Z,96832.25
2019-03-06T15:50:37.468Z,96827.63
2019-03-06T15:53:09.401Z,96825.53
2019-03-06T15:55:41.101Z,96823.39
2019-03-06T15:58:13.779Z,96823.57
2019-03-06T16:00:46.500Z,96815.52
2019-03-06T16:03:18.515Z,96818.64
2019-03-06T16:05:50.201Z,96816.66
2019-03-06T16:08:21.899Z,96812.06
2019-03-06T16:10:53.479Z,96807.98
2019-03-06T16:13:25.065Z,96805.69
2019-03-06T16:15:59.672Z,96806.30
2019-03-06T16:18:31.255Z,96795.62
2019-03-06T16:21:02.833Z,96793.00
2019-03-06T16:23:34.522Z,96800.04
2019-03-06T16:26:06.176Z,96794.63
2019-03-06T16:28:37.715Z,96794.95
2019-03-06T16:31:09.327Z,96794.63
2019-03-06T16:33:41.169Z,96793.80
2019-03-06T16:36:12.741Z,96787.22
2019-03-06T16:38:44.309Z,96789.02
2019-03-06T16:41:15.905Z,96788.51
2019-03-06T16:43:47.540Z,96780.81
2019-03-06T16:46:19.194Z,96786.69
2019-03-06T16:48:50.857Z,96782.61
2019-03-06T16:51:22.555Z,96786.36
2019-03-06T16:53:54.129Z,96787.18
2019-03-06T16:56:25.890Z,96786.82
2019-03-06T16:58:57.481Z,96784.70
2019-03-06T17:01:29.335Z,96785.02
2019-03-06T17:04:01.088Z,96780.88
2019-03-06T17:06:34.463Z,96779.05
2019-03-06T17:09:08.317Z,96777.54
2019-03-06T17:11:41.281Z,96776.05
2019-03-06T17:14:12.874Z,96776.33
2019-03-06T17:16:44.555Z,96772.09
2019-03-06T17:19:16.126Z,96766.97
2019-03-06T17:21:47.742Z,96759.08
2019-03-06T17:24:19.310Z,96758.55
2019-03-06T17:26:53.866Z,96750.48
2019-03-06T17:29:25.539Z,96751.26
2019-03-06T17:31:57.283Z,96750.76
2019-03-06T17:34:29.979Z,96743.05
2019-03-06T17:37:01.622Z,96742.21
2019-03-06T17:39:36.246Z,96743.05
2019-03-06T17:42:08.067Z,96742.52
2019-03-06T17:44:39.916Z,96746.30
2019-03-06T17:47:11.811Z,96740.05
2019-03-06T17:49:43.518Z,96738.21
2019-03-06T17:52:15.298Z,96748.80
2019-03-06T17:54:46.930Z,96741.77
2019-03-06T17:57:18.605Z,96751.92
2019-03-06T17:59:50.227Z,96754.20
2019-03-06T18:02:21.918Z,96759.13
2019-03-06T18:04:53.571Z,96755.05
2019-03-06T18:07:26.211Z,96752.31
2019-03-06T18:09:57.875Z,96746.07
2019-03-06T18:12:30.090Z,96744.11
2019-03-06T18:15:01.695Z,96746.42
2019-03-06T18:17:33.489Z,96741.83
2019-03-06T18:20:06.397Z,96736.78
2019-03-06T18:22:38.269Z,96726.30
2019-03-06T18:25:13.280Z,96721.88
2019-03-06T18:27:44.879Z,96721.56
2019-03-06T18:30:20.325Z,96717.64
2019-03-06T18:32:52.069Z,96713.52
2019-03-06T18:35:23.828Z,96713.64
2019-03-06T18:37:55.511Z,96705.44
2019-03-06T18:40:27.372Z,96686.70
2019-03-06T18:42:59.019Z,96664.63
2019-03-06T18:45:30.707Z,96667.06
2019-03-06T18:48:02.423Z,96659.52
2019-03-06T18:50:34.050Z,96647.39
2019-03-06T18:53:05.709Z,96648.23
2019-03-06T18:55:40.235Z,96646.73
2019-03-06T18:58:13.068Z,96641.69
2019-03-06T19:00:44.787Z,96637.95
2019-03-06T19:03:16.568Z,96630.93
2019-03-06T19:05:48.373Z,96639.47
2019-03-06T19:08:20.268Z,96631.95
2019-03-06T19:10:51.947Z,96635.38
2019-03-06T19:13:23.556Z,96640.13
2019-03-06T19:15:55.248Z,96636.02
2019-03-06T19:18:28.027Z,96634.86
2019-03-06T19:20:59.978Z,96633.39
2019-03-06T19:23:31.680Z,96636.70
2019-03-06T19:26:03.754Z,96628.52
2019-03-06T19:28:35.461Z,96630.77
2019-03-06T19:31:07.203Z,96619.27
2019-03-06T19:33:39.020Z,96625.98
2019-03-06T19:36:10.853Z,96619.25
2019-03-06T19:38:42.501Z,96625.14
2019-03-06T19:41:16.003Z,96626.10
2019-03-06T19:43:47.615Z,96623.30
2019-03-06T19:46:19.313Z,96618.22
2019-03-06T19:48:51.011Z,96628.00
2019-03-06T19:51:22.685Z,96623.58
2019-03-06T19:53:54.383Z,96624.70
2019-03-06T19:56:27.566Z,96618.14
2019-03-06T19:58:59.273Z,96627.92
2019-03-06T20:01:33.533Z,96623.34
2019-03-06T20:04:05.443Z,96621.47
2019-03-06T20:06:39.654Z,96617.38
2019-03-06T20:09:29.218Z,96609.34
2019-03-06T20:12:00.855Z,96601.46
2019-03-06T20:14:32.623Z,96594.27
2019-03-06T20:17:04.284Z,96588.22
2019-03-06T20:19:37.772Z,96586.72
2019-03-06T20:22:09.486Z,96600.16
2019-03-06T20:24:41.230Z,96579.22
2019-03-06T20:27:12.869Z,96581.99
2019-03-06T20:29:44.728Z,96573.98
2019-03-06T20:32:16.600Z,96568.07
2019-03-06T20:34:48.267Z,96566.91
2019-03-06T20:37:20.942Z,96566.72
2019-03-06T20:39:52.649Z,96567.34
2019-03-06T20:42:27.152Z,96560.41
2019-03-06T20:44:58.752Z,96559.41
2019-03-06T20:47:30.361Z,96563.33
2019-03-06T20:50:02.096Z,96556.86
2019-03-06T20:52:36.818Z,96557.16
2019-03-06T20:55:08.485Z,96558.46
2019-03-06T20:57:40.221Z,96568.88
2019-03-06T21:00:16.079Z,96558.38
2019-03-06T21:02:47.782Z,96564.75
2019-03-06T21:05:19.859Z,96555.39
2019-03-06T21:07:51.637Z,96557.72
2019-03-06T21:10:23.352Z,96550.77
2019-03-06T21:12:55.243Z,96545.80
2019-03-06T21:15:26.863Z,96547.41
2019-03-06T21:17:58.526Z,96548.06
2019-03-06T21:20:30.134Z,96539.61
2019-03-06T21:23:01.772Z,96550.38
2019-03-06T21:25:33.693Z,96550.72
2019-03-06T21:28:07.320Z,96554.64
2019-03-06T21:30:40.116Z,96552.84
2019-03-06T21:33:11.760Z,96535.39
2019-03-06T21:35:44.269Z,96539.97
2019-03-06T21:38:16.308Z,96562.83
2019-03-06T21:40:47.930Z,96557.91
2019-03-06T21:43:19.635Z,96570.47
2019-03-06T21:45:51.276Z,96566.25
2019-03-06T21:48:23.041Z,96557.60
2019-03-06T21:50:54.899Z,96556.77
2019-03-06T21:53:28.410Z,96540.92
2019-03-06T21:56:00.872Z,96530.36
2019-03-06T21:58:33.565Z,96534.28
2019-03-06T22:01:05.314Z,96542.73
2019-03-06T22:03:37.100Z,96529.38
2019-03-06T22:06:09.671Z,96524.34
2019-03-06T22:08:41.276Z,96526.66
2019-03-06T22:11:12.920Z,96510.33
2019-03-06T22:13:44.558Z,96509.02
2019-03-06T22:16:16.134Z,96495.16
2019-03-06T22:18:47.796Z,96488.98
2019-03-06T22:21:19.413Z,96463.20
2019-03-06T22:23:50.976Z,96478.18
2019-03-06T22:26:23.668Z,96470.95
2019-03-06T22:28:55.246Z,96473.91
2019-03-06T22:31:26.816Z,96464.02
2019-03-06T22:33:58.407Z,96462.66
2019-03-06T22:36:30.020Z,96463.92
2019-03-06T22:39:01.604Z,96467.62
2019-03-06T22:41:34.833Z,96469.38
2019-03-06T22:44:06.396Z,96476.87
2019-03-06T22:46:37.998Z,96481.43
2019-03-06T22:49:12.995Z,96476.33
2019-03-06T22:51:48.139Z,96472.91
2019-03-06T22:54:20.339Z,96467.69
2019-03-06T22:56:51.993Z,96480.47
2019-03-06T22:59:23.609Z,96483.55
2019-03-06T23:01:55.522Z,96491.06
2019-03-06T23:04:27.160Z,96491.64
2019-03-06T23:06:58.868Z,96486.57
2019-03-06T23:09:30.444Z,96493.73
2019-03-06T23:12:02.022Z,96498.15
2019-03-06T23:14:33.908Z,96496.64
2019-03-06T23:17:05.499Z,96486.16
2019-03-06T23:19:37.091Z,96490.41
2019-03-06T23:22:09.801Z,96486.16
2019-03-06T23:24:42.460Z,96481.77
2019-03-06T23:27:14.033Z,96473.59
2019-03-06T23:29:46.732Z,96465.11
2019-03-06T23:32:18.318Z,96461.80
2019-03-06T23:34:50.193Z,96460.48
2019-03-06T23:37:21.762Z,96457.67
2019-03-06T23:39:53.432Z,96460.27
2019-03-06T23:42:24.995Z,96456.80
2019-03-06T23:44:57.886Z,96465.22
2019-03-06T23:47:29.490Z,96447.24
2019-03-06T23:50:01.371Z,96438.70
2019-03-06T23:52:38.736Z,96439.52
2019-03-06T23:55:15.280Z,96435.55
2019-03-06T23:57:45.670Z,96439.75
